Latest Weather Observations for Cape Otway

IDV60801

Issued at 11:31 pm EDT Saturday 28 February 2015 (issued every 30 minutes, with the page automatically refreshed every 10 minutes)

About weather observations | Map of weather stations | Latest weather observations for VIC | Other Formats
Station Details ID: 090015 Name: CAPE OTWAY LIGHTHOUSE Lat: -38.86 Lon: 143.51 Height: 82.0 m
Data from the previous 72 hours. | See also: Recent months at Cape Otway
Date/Time
EDT
Temp
°C
App
Temp
°C
Dew
Point
Rel
Hum
%
Delta-T
°C
Wind Press
QNH
hPa
Press
MSL
hPa
Rain
since 9 am
mm
Dir
 
Spd
km/h
Gust
km/h
Spd
kts
Gust
kts
28/11:30pm 16.2 10.2 13.3 83 1.6 SW 37 48 20 26 1006.8 - 6.6
28/11:00pm 16.2 11.0 14.4 89 1.0 SW 35 46 19 25 1006.8 - 6.6
28/10:30pm 16.4 12.1 15.8 96 0.4 SW 33 48 18 26 1006.5 - 6.6
28/10:00pm 16.7 13.8 16.1 96 0.4 WSW 26 41 14 22 1006.1 - 6.4
28/09:30pm 17.3 15.8 16.7 96 0.4 W 20 28 11 15 1005.4 - 6.2
28/09:00pm 17.4 15.6 16.9 97 0.3 W 22 32 12 17 1005.2 1005.0 6.2
28/08:30pm 17.4 15.6 16.9 97 0.3 W 22 30 12 16 1004.5 - 6.2
28/08:00pm 17.8 16.5 17.3 97 0.3 W 20 26 11 14 1004.5 - 6.2
28/07:30pm 18.2 14.7 17.4 95 0.5 W 32 44 17 24 1004.5 - 5.0
28/07:19pm 18.8 15.9 17.1 90 1.0 W 28 50 15 27 1005.3 - 1.2
28/07:15pm 19.0 17.6 17.0 88 1.2 W 20 35 11 19 1004.3 - 0.6
28/07:00pm 19.4 20.7 17.2 87 1.3 NNW 6 11 3 6 1002.0 - 0.6
28/06:30pm 20.0 22.1 16.2 79 2.3 CALM 0 0 0 0 1001.9 - 0.4
28/06:00pm 20.6 21.7 17.0 80 2.2 N 7 17 4 9 1002.5 1002.3 0.4
28/05:30pm 21.1 21.0 16.1 73 3.0 W 11 19 6 10 1003.3 - 0.0
28/05:00pm 22.2 22.6 16.2 69 3.6 SW 9 15 5 8 1002.5 - 0.0
28/04:30pm 22.6 22.6 16.2 67 3.9 SW 11 15 6 8 1003.1 - 0.0
28/04:00pm 23.5 23.9 16.3 64 4.4 SSE 9 15 5 8 1002.6 - 0.0
28/03:30pm 22.7 22.7 15.3 63 4.4 E 9 13 5 7 1002.3 - 0.0
28/03:00pm 24.8 24.3 14.9 54 6.0 N 11 19 6 10 1002.6 1002.4 0.0
28/02:30pm 24.6 24.5 15.0 55 5.8 NNW 9 17 5 9 1002.7 - 0.0
28/02:00pm 24.2 22.0 14.9 56 5.6 N 20 30 11 16 1002.8 - 0.0
28/01:30pm 23.8 21.8 15.0 57 5.3 N 19 26 10 14 1003.4 - 0.0
28/01:00pm 23.7 22.1 14.9 57 5.3 NNW 17 30 9 16 1003.9 - 0.0
28/12:30pm 23.9 23.3 15.7 60 5.0 NNW 13 20 7 11 1004.4 - 0.0
28/12:00pm 23.2 22.7 15.8 63 4.5 WNW 13 17 7 9 1004.7 1004.4 0.0
28/11:30am 24.0 21.9 15.2 58 5.3 NW 20 30 11 16 1004.4 - 0.0
28/11:00am 22.5 21.1 15.6 65 4.2 WNW 17 30 9 16 1004.9 - 0.0
28/10:30am 21.9 20.6 14.8 64 4.2 NW 15 28 8 15 1004.9 - 0.0
28/10:00am 22.3 19.0 14.9 63 4.4 NW 26 41 14 22 1005.1 - 0.0
28/09:38am 22.3 18.5 14.7 62 4.5 NW 28 50 15 27 1005.1 - 0.0
28/09:30am 22.1 18.6 14.5 62 4.5 NW 26 37 14 20 1005.0 - 0.0
28/09:00am 20.8 17.2 14.2 66 3.9 N 26 35 14 19 1004.2 1003.9 0.2
28/08:30am 20.4 17.7 13.6 65 3.9 N 20 32 11 17 1004.3 - 0.2
28/08:00am 19.5 18.4 13.2 67 3.6 N 11 19 6 10 1004.5 - 0.2
28/07:30am 17.8 17.1 13.3 75 2.5 NW 9 19 5 10 1004.8 - 0.2
28/07:00am 16.3 14.9 13.4 83 1.6 NE 13 17 7 9 1004.5 - 0.2
28/06:30am 16.1 15.0 13.2 83 1.6 E 11 15 6 8 1004.6 - 0.2
28/06:00am 16.2 15.9 13.3 83 1.6 E 7 11 4 6 1004.8 1004.6 0.2
28/05:30am 16.2 14.7 13.1 82 1.7 NE 13 20 7 11 1004.7 - 0.2
28/05:00am 15.7 13.5 13.4 86 1.3 ENE 17 24 9 13 1004.9 - 0.2
28/04:30am 15.7 13.0 13.4 86 1.3 ENE 20 33 11 18 1005.4 - 0.2
28/04:00am 15.7 13.0 13.5 87 1.2 ENE 20 32 11 17 1006.1 - 0.2
28/03:30am 15.7 12.6 13.4 86 1.3 ENE 22 33 12 18 1006.8 - 0.2
28/03:00am 15.5 12.9 13.2 86 1.3 ENE 19 28 10 15 1007.5 1007.3 0.2
28/02:30am 15.5 13.7 13.3 87 1.2 ENE 15 24 8 13 1008.2 - 0.2
28/02:00am 15.5 12.7 13.3 87 1.2 NE 20 28 11 15 1008.7 - 0.2
28/01:30am 15.2 13.0 13.4 89 1.0 NE 17 22 9 12 1009.2 - 0.2
28/01:00am 15.0 12.8 13.2 89 1.0 ENE 17 20 9 11 1009.6 - 0.2
28/12:30am 15.1 12.4 13.0 87 1.2 ENE 19 24 10 13 1009.8 - 0.2
28/12:00am 15.3 12.3 12.4 83 1.6 E 20 24 11 13 1010.1 1009.9 0.2
 
Date/Time
EDT
Temp
°C
App
Temp
°C
Dew
Point
Rel
Hum
%
Delta-T
°C
Wind Press
QNH
hPa
Press
MSL
hPa
Rain
since 9 am
mm
Dir
 
Spd
km/h
Gust
km/h
Spd
kts
Gust
kts
27/11:30pm 15.4 12.9 12.3 82 1.7 E 17 20 9 11 1010.5 - 0.2
27/11:00pm 15.5 14.2 12.4 82 1.7 E 11 17 6 9 1011.1 - 0.2
27/10:30pm 15.6 13.9 12.4 81 1.8 E 13 20 7 11 1011.4 - 0.2
27/10:00pm 15.8 13.4 12.5 81 1.8 ESE 17 20 9 11 1011.4 - 0.2
27/09:30pm 15.8 13.8 12.7 82 1.7 ESE 15 20 8 11 1011.3 - 0.2
27/09:00pm 15.7 13.5 13.2 85 1.4 ESE 17 22 9 12 1011.1 1010.9 0.2
27/08:30pm 15.5 15.0 13.7 89 1.0 E 9 11 5 6 1011.0 - 0.2
27/08:00pm 15.6 14.7 13.6 88 1.1 E 11 15 6 8 1010.8 - 0.2
27/07:30pm 15.8 15.7 14.0 89 1.0 NE 7 9 4 5 1011.2 - 0.2
27/07:00pm 15.8 15.7 13.8 88 1.1 E 7 9 4 5 1010.9 - 0.2
27/06:30pm 16.1 15.1 13.4 84 1.5 ENE 11 15 6 8 1010.5 - 0.0
27/06:00pm 16.4 14.5 12.9 80 2.0 ENE 15 20 8 11 1010.1 1009.9 0.0
27/05:30pm 16.6 15.3 12.6 77 2.2 E 11 17 6 9 1010.5 - 0.0
27/05:00pm 17.1 14.7 12.6 75 2.5 ESE 17 20 9 11 1010.5 - 0.0
27/04:30pm 17.7 15.5 13.4 76 2.4 ESE 17 20 9 11 1010.3 - 0.0
27/04:00pm 16.8 14.7 12.5 76 2.4 E 15 20 8 11 1010.2 - 0.0
27/03:30pm 18.0 17.7 13.3 74 2.7 S 7 13 4 7 1011.5 - 0.0
27/03:00pm 17.0 16.7 12.7 76 2.4 SSW 6 9 3 5 1012.0 1011.8 0.0
27/02:30pm 17.4 17.1 13.3 77 2.3 SSW 7 11 4 6 1011.9 - 0.0
27/02:00pm 18.0 16.3 13.5 75 2.6 SE 15 20 8 11 1011.4 - 0.0
27/01:30pm 17.5 16.9 13.6 78 2.2 SSE 9 15 5 8 1011.8 - 0.0
27/01:00pm 18.1 17.6 13.8 76 2.5 SSE 9 15 5 8 1011.9 - 0.0
27/12:30pm 19.6 19.1 14.8 74 2.8 SE 11 17 6 9 1012.2 - 0.0
27/12:00pm 18.2 17.1 14.3 78 2.3 SE 13 24 7 13 1012.2 1012.0 0.0
27/11:30am 17.5 15.0 14.0 80 2.0 ESE 20 30 11 16 1012.1 - 0.0
27/11:00am 16.6 15.0 13.9 84 1.5 ESE 15 22 8 12 1012.1 - 0.0
27/10:30am 16.2 14.6 13.9 86 1.3 ESE 15 22 8 12 1012.0 - 0.0
27/10:00am 16.1 14.9 13.9 87 1.2 ESE 13 22 7 12 1011.9 - 0.0
27/09:30am 15.9 15.8 13.9 88 1.1 ESE 7 13 4 7 1011.8 - 0.0
27/09:00am 15.8 15.8 14.2 90 0.9 SE 7 15 4 8 1011.6 1011.4 3.6
27/08:30am 15.8 14.7 14.3 91 0.9 ESE 13 20 7 11 1011.2 - 3.6
27/08:00am 15.6 15.9 14.6 94 0.6 ENE 6 7 3 4 1011.1 - 3.6
27/07:30am 15.2 15.8 14.2 94 0.6 NNE 4 6 2 3 1011.1 - 3.6
27/07:00am 15.1 16.0 14.1 94 0.6 ESE 2 7 1 4 1010.7 - 3.6
27/06:30am 15.5 16.9 14.4 93 0.6 CALM 0 0 0 0 1010.5 - 3.6
27/06:00am 15.7 16.5 14.7 94 0.6 SE 4 9 2 5 1010.5 1010.3 3.4
27/05:30am 16.1 17.8 15.1 94 0.6 CALM 0 0 0 0 1010.4 - 3.0
27/05:00am 16.1 17.4 15.1 94 0.6 NE 2 9 1 5 1010.4 - 1.6
27/04:30am 16.3 17.7 15.3 94 0.6 ENE 2 7 1 4 1010.4 - 1.6
27/04:00am 16.6 18.1 15.6 94 0.6 S 2 7 1 4 1010.6 - 1.6
27/03:30am 16.6 18.0 15.5 93 0.6 SSW 2 9 1 5 1010.8 - 1.6
27/03:00am 16.2 17.8 14.9 92 0.8 CALM 0 0 0 0 1010.9 1010.7 1.6
27/02:30am 16.7 17.1 15.2 91 0.9 NW 7 9 4 5 1010.9 - 1.4
27/02:00am 16.8 18.4 15.0 89 1.0 CALM 0 2 0 1 1011.3 - 0.0
27/01:30am 16.7 17.5 14.7 88 1.2 S 4 7 2 4 1011.8 - 0.0
27/01:00am 16.8 18.1 15.2 90 0.9 S 2 6 1 3 1011.7 - 0.0
27/12:30am 16.8 16.8 15.3 91 0.9 SSW 9 46 5 25 1011.6 - 0.0
27/12:00am 16.8 16.5 15.5 92 0.8 SW 11 19 6 10 1011.6 1011.4 0.0
 
Date/Time
EDT
Temp
°C
App
Temp
°C
Dew
Point
Rel
Hum
%
Delta-T
°C
Wind Press
QNH
hPa
Press
MSL
hPa
Rain
since 9 am
mm
Dir
 
Spd
km/h
Gust
km/h
Spd
kts
Gust
kts
26/11:30pm 16.8 15.9 15.8 94 0.6 SSW 15 20 8 11 1011.7 - 0.0
26/11:00pm 17.2 16.7 15.9 92 0.8 SW 13 17 7 9 1011.8 - 0.0
26/10:30pm 17.7 17.0 15.5 87 1.3 W 13 19 7 10 1012.1 - 0.0
26/10:00pm 17.5 17.4 15.0 85 1.5 NW 9 13 5 7 1011.9 - 0.0
26/09:30pm 17.5 17.2 15.5 88 1.2 WNW 11 15 6 8 1011.9 - 0.0
26/09:00pm 17.5 17.1 15.3 87 1.3 NW 11 17 6 9 1011.6 1011.4 0.0
26/08:30pm 17.5 16.7 15.0 85 1.5 WNW 13 17 7 9 1011.5 - 0.0
26/08:00pm 17.4 15.9 15.4 88 1.2 W 17 22 9 12 1011.2 - 0.0
26/07:30pm 17.9 16.8 15.3 85 1.5 W 15 22 8 12 1010.9 - 0.0
26/07:00pm 18.0 16.8 15.1 83 1.7 W 15 22 8 12 1010.7 - 0.0
26/06:30pm 18.1 16.4 14.6 80 2.0 W 17 20 9 11 1010.6 - 0.0
26/06:00pm 18.4 16.7 14.7 79 2.2 W 17 22 9 12 1010.6 1010.4 0.0
26/05:30pm 19.1 17.7 14.6 75 2.6 W 15 19 8 10 1010.4 - 0.0
26/05:00pm 19.9 18.1 14.5 71 3.2 W 17 22 9 12 1010.6 - 0.0
26/04:30pm 19.0 17.0 14.9 77 2.4 W 19 24 10 13 1010.5 - 0.0
26/04:00pm 18.7 16.1 13.8 73 2.8 W 20 24 11 13 1010.7 - 0.0
26/03:30pm 19.3 17.2 13.7 70 3.2 W 17 22 9 12 1011.0 - 0.0
26/03:00pm 19.5 17.2 14.1 71 3.1 W 19 24 10 13 1011.2 1011.0 0.0
26/02:30pm 19.3 16.7 13.7 70 3.2 W 20 28 11 15 1011.3 - 0.0
26/02:00pm 19.7 17.5 14.3 71 3.1 W 19 26 10 14 1011.3 - 0.0
26/01:30pm 19.6 17.3 14.6 73 2.9 W 20 28 11 15 1011.4 - 0.0
26/01:00pm 19.5 17.1 14.5 73 2.9 W 20 28 11 15 1011.5 - 0.0
26/12:30pm 19.5 17.4 15.2 76 2.5 W 20 28 11 15 1011.7 - 0.0
26/12:00pm 19.0 16.5 15.1 78 2.3 W 22 32 12 17 1011.8 1011.6 0.0
26/11:30am 18.9 17.1 15.4 80 2.1 WSW 19 28 10 15 1011.8 - 0.0
26/11:00am 18.8 16.9 15.7 82 1.8 WSW 20 28 11 15 1011.8 - 0.0
26/10:30am 18.5 16.7 15.6 83 1.7 WSW 19 28 10 15 1011.6 - 0.0
26/10:00am 18.9 17.0 15.8 82 1.8 W 20 26 11 14 1011.3 - 0.0
26/09:30am 18.0 15.7 15.8 87 1.3 W 22 26 12 14 1011.1 - 0.0
26/09:00am 17.7 16.4 15.7 88 1.2 W 17 24 9 13 1010.8 1010.6 0.0
26/08:30am 17.6 16.0 15.9 90 1.0 W 19 24 10 13 1010.6 - 0.0
26/08:00am 17.2 15.6 15.9 92 0.8 WSW 19 26 10 14 1010.5 - 0.0
26/07:30am 17.2 15.6 16.1 93 0.7 W 19 26 10 14 1010.3 - 0.0
26/07:00am 17.3 16.2 16.3 94 0.6 W 17 24 9 13 1010.0 - 0.0
26/06:30am 17.2 16.1 16.4 95 0.5 W 17 22 9 12 1009.8 - 0.0
26/06:00am 17.3 15.7 16.5 95 0.5 W 20 24 11 13 1009.7 1009.5 0.0
26/05:30am 17.4 16.9 16.8 96 0.4 W 15 20 8 11 1009.7 - 0.0
26/05:00am 17.4 16.8 16.6 95 0.5 WNW 15 20 8 11 1009.3 - 0.0
26/04:30am 17.4 16.4 16.6 95 0.5 WNW 17 22 9 12 1009.3 - 0.0
26/04:00am 16.8 16.6 15.8 94 0.6 NW 11 15 6 8 1009.1 - 0.0
26/03:30am 17.4 17.5 16.6 95 0.5 WNW 11 19 6 10 1009.1 - 0.0
26/03:00am 17.3 16.2 16.3 94 0.6 WNW 17 22 9 12 1009.3 1009.1 0.0
26/02:30am 16.9 15.0 15.2 90 1.0 NW 19 24 10 13 1009.5 - 0.0
26/02:00am 17.0 14.5 14.1 83 1.7 WNW 20 28 11 15 1010.1 - 0.0
26/01:30am 15.5 13.8 13.7 89 1.0 NW 15 22 8 12 1010.1 - 0.0
26/01:00am 15.8 14.2 14.0 89 1.0 NNW 15 19 8 10 1010.4 - 0.0
26/12:30am 15.4 13.4 13.9 91 0.8 NNW 17 19 9 10 1010.9 - 0.0
26/12:00am 15.4 13.9 14.1 92 0.7 NW 15 15 8 8 1011.2 1011.0 0.0

Other Formats:

Comma delimited format used in spreadsheet applications
http://www.bom.gov.au/fwo/IDV60801/IDV60801.94842.axf

JavaScript Object Notation format (JSON) in row-major order
http://www.bom.gov.au/fwo/IDV60801/IDV60801.94842.json